Time;durP1;ratioP1;P1;durP2;ratioP2;P2;SDS_P1;SDS_P2;PMS_P1;PMS_P2;Temp;Humidity;BMP_temperature;BMP_pressure;BME280_temperature;BME280_humidity;BME280_pressure;Samples;Min_cycle;Max_cycle;Signal;HPM_P1;HPM_P2
2022/01/08 00:01:09;;;;;;;3.22;1.10;;;;;;;;;;5055667;28;20025;-82
2022/01/08 00:03:37;;;;;;;1.95;1.00;;;;;;;;;;5055066;28;20056;-81
2022/01/08 00:06:04;;;;;;;1.05;0.95;;;;;;;;;;5055802;28;20029;-81
2022/01/08 00:08:31;;;;;;;1.83;0.95;;;;;;;;;;5053754;28;20122;-81
2022/01/08 00:10:59;;;;;;;1.75;1.00;;;;;;;;;;5054137;28;20039;-82
2022/01/08 00:13:26;;;;;;;1.98;1.08;;;;;;;;;;5055709;28;20013;-81
2022/01/08 00:15:53;;;;;;;1.25;0.70;;;;;;;;;;5055372;28;20045;-80
2022/01/08 00:18:21;;;;;;;2.42;1.00;;;;;;;;;;5053690;28;20611;-81
2022/01/08 00:20:48;;;;;;;1.27;1.00;;;;;;;;;;5053862;28;20021;-81
2022/01/08 00:23:15;;;;;;;3.22;1.00;;;;;;;;;;5055382;28;20100;-81
2022/01/08 00:25:42;;;;;;;1.13;0.80;;;;;;;;;;5055195;28;20021;-82
2022/01/08 00:28:09;;;;;;;0.88;0.88;;;;;;;;;;5053724;28;20029;-81
2022/01/08 00:30:36;;;;;;;2.58;0.90;;;;;;;;;;5055140;28;20096;-81
2022/01/08 00:33:03;;;;;;;1.77;1.08;;;;;;;;;;5056087;28;20024;-82
2022/01/08 00:35:32;;;;;;;1.15;1.05;;;;;;;;;;5053354;28;20021;-81
2022/01/08 00:38:00;;;;;;;1.73;1.10;;;;;;;;;;5054519;28;20032;-82
2022/01/08 00:40:27;;;;;;;1.25;0.93;;;;;;;;;;5053400;28;20075;-82
2022/01/08 00:42:54;;;;;;;0.90;0.85;;;;;;;;;;5053064;28;20028;-82
2022/01/08 00:45:21;;;;;;;1.52;0.90;;;;;;;;;;5054460;28;20489;-82
2022/01/08 00:47:50;;;;;;;1.02;0.90;;;;;;;;;;5052832;28;20029;-81
2022/01/08 00:50:17;;;;;;;1.30;0.80;;;;;;;;;;5054228;28;20025;-81
2022/01/08 00:52:45;;;;;;;1.65;0.80;;;;;;;;;;5052889;28;20024;-82
2022/01/08 00:55:13;;;;;;;1.20;0.70;;;;;;;;;;5052935;28;20343;-83
2022/01/08 00:57:40;;;;;;;2.83;1.17;;;;;;;;;;5053479;28;20033;-82
2022/01/08 01:00:09;;;;;;;1.25;0.90;;;;;;;;;;5053961;28;20481;-82
2022/01/08 01:02:36;;;;;;;1.20;1.08;;;;;;;;;;5052687;28;20033;-81
2022/01/08 01:05:04;;;;;;;1.13;1.02;;;;;;;;;;5053024;28;20086;-82
2022/01/08 01:07:32;;;;;;;2.78;1.00;;;;;;;;;;5053800;28;20032;-82
2022/01/08 01:09:59;;;;;;;1.00;0.80;;;;;;;;;;5054548;28;20096;-81
2022/01/08 01:12:26;;;;;;;1.50;0.90;;;;;;;;;;5053032;28;20021;-82
2022/01/08 01:14:53;;;;;;;0.93;0.90;;;;;;;;;;5054477;28;20017;-82
2022/01/08 01:17:20;;;;;;;0.90;0.73;;;;;;;;;;5053626;28;20078;-81
2022/01/08 01:19:48;;;;;;;3.15;1.20;;;;;;;;;;5052823;28;20389;-82
2022/01/08 01:22:18;;;;;;;2.38;2.05;;;;;;;;;;5052381;28;20029;-83
2022/01/08 01:24:46;;;;;;;;;;;;;;;;;;5053366;28;20389;-82
2022/01/08 01:27:51;;;;;;;3.40;2.47;;;;;;;;;;5053987;28;19909;-83
2022/01/08 01:30:14;;;;;;;6.00;3.03;;;;;;;;;;5053434;28;20051;-83
2022/01/08 01:49:26;;;;;;;2.57;2.10;;;;;;;;;;5063046;28;20060;-83
2022/01/08 01:51:55;;;;;;;4.35;2.47;;;;;;;;;;5053696;28;20053;-83
2022/01/08 01:54:22;;;;;;;3.15;2.20;;;;;;;;;;5053900;28;20028;-83
2022/01/08 01:56:49;;;;;;;4.47;2.85;;;;;;;;;;5052115;28;20490;-84
2022/01/08 01:59:16;;;;;;;4.35;2.10;;;;;;;;;;5052089;28;20108;-83
2022/01/08 02:01:46;;;;;;;5.88;1.80;;;;;;;;;;5053830;28;20025;-83
2022/01/08 02:04:13;;;;;;;2.92;1.50;;;;;;;;;;5052904;28;20052;-83
2022/01/08 02:06:41;;;;;;;4.15;1.65;;;;;;;;;;5052961;28;20032;-83
2022/01/08 02:09:08;;;;;;;3.30;1.90;;;;;;;;;;5051892;28;20175;-83
2022/01/08 02:11:35;;;;;;;4.53;1.80;;;;;;;;;;5051853;28;20029;-84
2022/01/08 02:14:03;;;;;;;2.22;1.73;;;;;;;;;;5053402;28;20548;-83
2022/01/08 02:16:31;;;;;;;2.90;1.95;;;;;;;;;;5053419;28;20075;-83
2022/01/08 02:18:58;;;;;;;3.28;1.85;;;;;;;;;;5052774;28;20021;-83
2022/01/08 02:21:26;;;;;;;4.70;1.80;;;;;;;;;;5058406;28;20053;-84
2022/01/08 02:23:53;;;;;;;2.45;1.58;;;;;;;;;;5058021;28;20082;-83
2022/01/08 02:26:20;;;;;;;4.63;1.60;;;;;;;;;;5058915;28;20477;-82
2022/01/08 02:28:47;;;;;;;4.18;1.67;;;;;;;;;;5058337;28;20052;-83
2022/01/08 02:31:23;;;;;;;3.28;1.60;;;;;;;;;;5057016;28;20033;-84
2022/01/08 02:33:50;;;;;;;2.63;1.73;;;;;;;;;;5058307;28;20078;-83
2022/01/08 02:36:17;;;;;;;3.55;1.52;;;;;;;;;;5059016;28;20056;-83
2022/01/08 02:38:45;;;;;;;2.10;1.50;;;;;;;;;;5056191;28;20421;-83
2022/01/08 02:41:13;;;;;;;2.20;1.52;;;;;;;;;;5056346;28;20021;-83
2022/01/08 02:43:46;;;;;;;2.92;1.70;;;;;;;;;;5057417;28;20025;-84
2022/01/08 02:46:16;;;;;;;2.72;1.60;;;;;;;;;;5057226;28;20450;-83
2022/01/08 02:48:43;;;;;;;2.25;1.27;;;;;;;;;;5057246;28;20021;-83
2022/01/08 02:51:10;;;;;;;2.03;1.50;;;;;;;;;;5057022;28;20021;-84
2022/01/08 02:53:37;;;;;;;2.05;1.35;;;;;;;;;;5055730;28;20026;-84
2022/01/08 02:56:05;;;;;;;2.65;1.58;;;;;;;;;;5055949;28;20098;-84
2022/01/08 02:58:34;;;;;;;3.63;1.40;;;;;;;;;;5056367;28;20060;-83
2022/01/08 03:01:02;;;;;;;3.53;1.47;;;;;;;;;;5055803;28;20106;-84
2022/01/08 03:03:29;;;;;;;3.70;1.30;;;;;;;;;;5055225;28;20281;-84
2022/01/08 03:05:57;;;;;;;2.70;1.23;;;;;;;;;;5056146;28;20033;-85
2022/01/08 03:08:26;;;;;;;1.33;1.10;;;;;;;;;;5039286;28;20032;-84
2022/01/08 03:10:54;;;;;;;4.28;1.27;;;;;;;;;;5056379;28;20036;-85
2022/01/08 03:13:22;;;;;;;2.17;1.33;;;;;;;;;;5057867;28;20047;-84
2022/01/08 03:15:50;;;;;;;4.18;1.55;;;;;;;;;;5056773;28;20053;-84
2022/01/08 03:18:17;;;;;;;3.40;1.20;;;;;;;;;;5060163;28;20031;-83
2022/01/08 03:21:00;;;;;;;2.47;1.30;;;;;;;;;;5056298;28;20021;-83
2022/01/08 03:23:36;;;;;;;2.33;1.20;;;;;;;;;;5059016;28;20017;-83
2022/01/08 03:26:04;;;;;;;2.10;1.60;;;;;;;;;;5057201;28;20025;-84
2022/01/08 03:28:31;;;;;;;2.00;1.23;;;;;;;;;;5056811;28;20108;-80
2022/01/08 03:31:00;;;;;;;;;;;;;;;;;;5059407;28;20025;-82
2022/01/08 03:33:27;;;;;;;2.35;1.38;;;;;;;;;;5058838;28;20357;-84
2022/01/08 03:35:54;;;;;;;2.13;1.45;;;;;;;;;;5057157;28;20043;-81
2022/01/08 03:38:22;;;;;;;2.10;1.00;;;;;;;;;;5058160;28;20021;-80
2022/01/08 03:40:50;;;;;;;2.42;1.00;;;;;;;;;;5058694;28;20029;-82
2022/01/08 03:43:18;;;;;;;4.85;1.40;;;;;;;;;;5056851;28;20436;-80
2022/01/08 03:45:46;;;;;;;2.50;1.10;;;;;;;;;;5056738;28;20386;-84
2022/01/08 03:48:29;;;;;;;2.03;1.08;;;;;;;;;;5056404;28;20123;-80
2022/01/08 03:50:57;;;;;;;3.22;0.90;;;;;;;;;;5058873;28;20020;-79
2022/01/08 03:53:28;;;;;;;1.77;0.90;;;;;;;;;;5056830;28;20025;-79
2022/01/08 03:55:55;;;;;;;0.98;0.90;;;;;;;;;;5057296;28;20025;-81
2022/01/08 03:58:22;;;;;;;2.25;1.10;;;;;;;;;;5056213;28;20104;-83
2022/01/08 04:00:50;;;;;;;1.10;1.00;;;;;;;;;;5057845;28;20024;-85
2022/01/08 04:03:20;;;;;;;2.75;1.48;;;;;;;;;;5056560;28;20409;-85
2022/01/08 04:05:48;;;;;;;2.83;1.20;;;;;;;;;;5056625;28;20036;-87
2022/01/08 04:08:16;;;;;;;1.88;1.00;;;;;;;;;;5058046;28;20024;-84
2022/01/08 04:10:43;;;;;;;1.75;1.30;;;;;;;;;;5056069;28;20021;-80
2022/01/08 04:13:24;;;;;;;1.80;0.93;;;;;;;;;;5056702;28;20478;-83
2022/01/08 04:15:55;;;;;;;1.45;0.90;;;;;;;;;;5055760;28;20025;-86
2022/01/08 04:18:23;;;;;;;2.90;1.00;;;;;;;;;;5056927;28;20029;-82
2022/01/08 04:23:23;;;;;;;2.63;0.80;;;;;;;;;;5057725;28;20432;-85
2022/01/08 04:25:51;;;;;;;3.10;1.10;;;;;;;;;;5056306;28;20072;-82
2022/01/08 04:28:18;;;;;;;2.53;0.98;;;;;;;;;;5055485;28;20025;-83
2022/01/08 04:31:02;;;;;;;3.78;0.90;;;;;;;;;;5058639;28;20025;-82
2022/01/08 04:33:29;;;;;;;3.08;1.10;;;;;;;;;;5057932;28;20024;-80
2022/01/08 04:35:56;;;;;;;2.40;0.85;;;;;;;;;;5057496;28;20031;-78
2022/01/08 04:38:23;;;;;;;1.92;1.00;;;;;;;;;;5056770;28;20051;-81
2022/01/08 04:40:51;;;;;;;2.33;0.80;;;;;;;;;;5057664;28;20035;-81
2022/01/08 04:43:18;;;;;;;4.05;1.10;;;;;;;;;;5058120;28;20025;-86
2022/01/08 04:45:45;;;;;;;2.45;1.15;;;;;;;;;;5058917;28;20490;-81
2022/01/08 04:48:12;;;;;;;1.85;0.93;;;;;;;;;;5057400;28;20397;-86
2022/01/08 04:50:39;;;;;;;2.10;0.70;;;;;;;;;;5057149;28;20200;-85
2022/01/08 04:53:07;;;;;;;2.88;1.15;;;;;;;;;;5057977;28;20116;-82
2022/01/08 04:55:34;;;;;;;2.30;0.90;;;;;;;;;;5058408;28;20021;-83
2022/01/08 04:58:01;;;;;;;1.60;0.70;;;;;;;;;;5059373;28;20048;-84
2022/01/08 05:00:28;;;;;;;2.20;0.70;;;;;;;;;;5060439;28;20025;-84
2022/01/08 05:02:55;;;;;;;1.90;0.98;;;;;;;;;;5059415;28;20114;-83
2022/01/08 05:05:23;;;;;;;3.40;1.10;;;;;;;;;;5056655;28;20390;-81
2022/01/08 05:07:50;;;;;;;2.65;0.88;;;;;;;;;;5058271;28;20078;-80
2022/01/08 05:10:20;;;;;;;0.88;0.50;;;;;;;;;;5057177;28;20481;-83
2022/01/08 05:12:47;;;;;;;5.18;0.90;;;;;;;;;;5059408;28;20025;-81
2022/01/08 05:15:16;;;;;;;3.10;0.70;;;;;;;;;;5057049;28;20039;-83
2022/01/08 05:17:46;;;;;;;1.25;0.60;;;;;;;;;;5055857;28;20021;-83
2022/01/08 05:20:14;;;;;;;0.70;0.57;;;;;;;;;;5056645;28;20025;-81
2022/01/08 05:22:51;;;;;;;3.13;0.70;;;;;;;;;;5055296;28;20025;-77
2022/01/08 05:25:19;;;;;;;1.75;0.80;;;;;;;;;;5054803;28;20375;-80
2022/01/08 05:27:48;;;;;;;1.00;0.52;;;;;;;;;;5055269;28;20021;-81
2022/01/08 05:30:16;;;;;;;3.13;0.60;;;;;;;;;;5055708;28;20043;-80
2022/01/08 05:32:44;;;;;;;0.60;0.50;;;;;;;;;;5058365;28;20071;-79
2022/01/08 05:35:11;;;;;;;3.03;0.93;;;;;;;;;;5055486;28;20440;-79
2022/01/08 05:37:39;;;;;;;0.70;0.47;;;;;;;;;;5056724;28;20025;-79
2022/01/08 05:40:06;;;;;;;2.95;0.60;;;;;;;;;;5039842;28;20036;-81
2022/01/08 05:42:33;;;;;;;2.63;0.60;;;;;;;;;;5053315;28;20044;-83
2022/01/08 05:45:00;;;;;;;1.38;0.50;;;;;;;;;;5053051;28;20028;-81
2022/01/08 05:47:30;;;;;;;1.27;0.70;;;;;;;;;;5054176;28;20048;-81
2022/01/08 05:49:57;;;;;;;1.17;0.80;;;;;;;;;;5054012;28;20021;-82
2022/01/08 05:52:25;;;;;;;2.25;0.70;;;;;;;;;;5053688;28;20133;-83
2022/01/08 05:54:52;;;;;;;4.40;0.88;;;;;;;;;;5055000;28;20032;-83
2022/01/08 05:57:20;;;;;;;1.95;0.65;;;;;;;;;;5053208;28;20025;-82
2022/01/08 05:59:47;;;;;;;1.73;0.80;;;;;;;;;;5054028;28;20435;-81
2022/01/08 06:02:14;;;;;;;1.90;0.70;;;;;;;;;;5053350;28;20025;-81
2022/01/08 06:04:41;;;;;;;2.80;0.63;;;;;;;;;;5053542;28;20048;-83
2022/01/08 06:07:08;;;;;;;1.33;0.50;;;;;;;;;;5054957;28;20375;-81
2022/01/08 06:09:35;;;;;;;2.75;0.90;;;;;;;;;;5054732;28;20021;-81
2022/01/08 06:12:03;;;;;;;1.15;0.60;;;;;;;;;;5054233;28;20510;-82
2022/01/08 06:14:30;;;;;;;2.15;0.70;;;;;;;;;;5054944;28;20047;-82
2022/01/08 06:16:57;;;;;;;2.28;0.70;;;;;;;;;;5055573;28;20025;-82
2022/01/08 06:19:24;;;;;;;1.50;0.47;;;;;;;;;;5055326;28;20520;-82
2022/01/08 06:21:51;;;;;;;4.03;0.95;;;;;;;;;;5052952;28;20025;-83
2022/01/08 06:24:20;;;;;;;1.85;0.77;;;;;;;;;;5052862;28;20051;-82
2022/01/08 06:26:47;;;;;;;2.67;0.60;;;;;;;;;;5052075;28;20044;-82
2022/01/08 06:29:14;;;;;;;2.00;0.52;;;;;;;;;;5052712;28;20462;-81
2022/01/08 06:31:41;;;;;;;0.75;0.50;;;;;;;;;;5057590;28;20483;-83
2022/01/08 06:34:08;;;;;;;0.98;0.40;;;;;;;;;;5053386;28;20078;-81
2022/01/08 06:36:35;;;;;;;1.70;0.50;;;;;;;;;;5053531;28;20068;-81
2022/01/08 06:39:03;;;;;;;3.13;0.80;;;;;;;;;;5053272;28;20102;-80
2022/01/08 06:41:30;;;;;;;0.82;0.40;;;;;;;;;;5053604;28;20036;-80
2022/01/08 06:43:59;;;;;;;;;;;;;;;;;;5053704;28;20037;-78
2022/01/08 06:46:27;;;;;;;1.08;0.60;;;;;;;;;;5052033;28;19904;-80
2022/01/08 06:48:54;;;;;;;3.90;0.80;;;;;;;;;;5053318;28;20485;-78
2022/01/08 06:51:21;;;;;;;1.33;0.75;;;;;;;;;;5053055;28;20096;-79
2022/01/08 06:53:48;;;;;;;0.98;0.50;;;;;;;;;;5053479;28;20449;-81
2022/01/08 06:56:17;;;;;;;1.98;0.60;;;;;;;;;;5052019;28;20033;-82
2022/01/08 06:58:45;;;;;;;2.50;0.88;;;;;;;;;;5053355;28;20367;-80
2022/01/08 07:01:12;;;;;;;1.02;0.70;;;;;;;;;;5053819;28;20100;-82
2022/01/08 07:03:39;;;;;;;1.67;1.10;;;;;;;;;;5051895;28;20379;-80
2022/01/08 07:06:08;;;;;;;2.65;0.80;;;;;;;;;;5056641;28;20025;-83
2022/01/08 07:08:35;;;;;;;4.40;1.00;;;;;;;;;;5057858;28;20162;-79
2022/01/08 07:11:02;;;;;;;1.80;0.80;;;;;;;;;;5057705;28;20025;-81
2022/01/08 07:13:29;;;;;;;1.98;1.00;;;;;;;;;;5059317;28;20017;-80
2022/01/08 07:15:56;;;;;;;2.33;1.02;;;;;;;;;;5056617;28;20029;-79
2022/01/08 07:18:24;;;;;;;3.10;1.00;;;;;;;;;;5056971;28;20050;-80
2022/01/08 07:20:51;;;;;;;2.45;1.00;;;;;;;;;;5057845;28;20021;-82
2022/01/08 07:23:18;;;;;;;2.78;1.10;;;;;;;;;;5054999;28;20394;-80
2022/01/08 07:25:45;;;;;;;2.55;1.08;;;;;;;;;;5056424;28;20052;-80
2022/01/08 07:28:14;;;;;;;2.15;1.42;;;;;;;;;;5056503;28;20075;-82
2022/01/08 07:30:41;;;;;;;2.63;1.00;;;;;;;;;;5057142;28;20021;-80
2022/01/08 07:33:08;;;;;;;2.67;1.30;;;;;;;;;;5056316;28;20025;-82
2022/01/08 07:35:35;;;;;;;2.15;1.25;;;;;;;;;;5056162;28;20074;-84
2022/01/08 07:38:02;;;;;;;3.38;1.10;;;;;;;;;;5055824;28;20025;-84
2022/01/08 07:40:33;;;;;;;2.53;1.23;;;;;;;;;;5056687;28;20025;-81
2022/01/08 07:43:06;;;;;;;2.55;1.25;;;;;;;;;;5056429;28;20028;-83
2022/01/08 07:45:34;;;;;;;2.47;1.90;;;;;;;;;;5037890;28;20508;-83
2022/01/08 07:48:01;;;;;;;5.18;2.60;;;;;;;;;;5055544;28;20017;-82
2022/01/08 07:50:28;;;;;;;2.90;2.03;;;;;;;;;;5055678;28;20025;-83
2022/01/08 07:52:55;;;;;;;3.45;2.35;;;;;;;;;;5054277;28;20071;-83
2022/01/08 07:55:22;;;;;;;4.07;1.10;;;;;;;;;;5055732;28;20496;-83
2022/01/08 07:57:49;;;;;;;2.70;1.50;;;;;;;;;;5055662;28;20025;-84
2022/01/08 08:00:17;;;;;;;3.65;1.73;;;;;;;;;;5055586;28;20017;-84
2022/01/08 08:02:44;;;;;;;4.28;1.50;;;;;;;;;;5055999;28;20124;-85
2022/01/08 08:05:12;;;;;;;2.13;1.50;;;;;;;;;;5055859;28;20025;-84
2022/01/08 08:16:50;;;;;;;4.38;1.77;;;;;;;;;;5055958;28;20056;-84
2022/01/08 08:19:17;;;;;;;2.78;1.48;;;;;;;;;;5056615;28;20025;-83
2022/01/08 08:21:44;;;;;;;5.15;1.80;;;;;;;;;;5054948;28;20405;-83
2022/01/08 08:24:13;;;;;;;2.33;1.33;;;;;;;;;;5055282;28;20033;-84
2022/01/08 08:26:40;;;;;;;3.45;1.98;;;;;;;;;;5056717;28;20032;-82
2022/01/08 08:29:08;;;;;;;5.28;1.92;;;;;;;;;;5055060;28;20029;-84
2022/01/08 08:31:35;;;;;;;3.08;1.50;;;;;;;;;;5056776;28;20086;-83
2022/01/08 08:34:02;;;;;;;2.75;1.45;;;;;;;;;;5055733;28;20044;-80
2022/01/08 08:36:29;;;;;;;3.83;1.60;;;;;;;;;;5056774;28;20021;-83
2022/01/08 08:38:56;;;;;;;5.18;1.67;;;;;;;;;;5055227;28;20436;-83
2022/01/08 08:41:23;;;;;;;4.05;1.63;;;;;;;;;;5056235;28;20083;-84
2022/01/08 08:43:51;;;;;;;2.80;1.60;;;;;;;;;;5054713;28;20021;-81
2022/01/08 08:46:18;;;;;;;2.47;1.48;;;;;;;;;;5053905;28;20402;-82
2022/01/08 08:48:45;;;;;;;3.80;1.63;;;;;;;;;;5055119;28;20025;-81
2022/01/08 08:51:12;;;;;;;6.28;1.88;;;;;;;;;;5056448;28;20029;-83
2022/01/08 08:53:40;;;;;;;7.80;1.67;;;;;;;;;;5053293;28;20025;-80
2022/01/08 08:56:10;;;;;;;4.90;1.30;;;;;;;;;;5054502;28;20390;-80
2022/01/08 08:58:37;;;;;;;3.33;1.58;;;;;;;;;;5054646;28;20477;-83
2022/01/08 09:01:08;;;;;;;4.32;1.83;;;;;;;;;;5054650;28;20036;-83
2022/01/08 09:03:35;;;;;;;4.55;1.70;;;;;;;;;;5052816;28;20386;-78
2022/01/08 09:06:02;;;;;;;3.55;1.40;;;;;;;;;;5052751;28;20049;-81
2022/01/08 09:08:30;;;;;;;4.22;1.20;;;;;;;;;;5054065;28;20460;-78
2022/01/08 09:10:59;;;;;;;6.22;1.63;;;;;;;;;;5054034;28;20021;-79
2022/01/08 09:13:27;;;;;;;3.38;1.13;;;;;;;;;;5053483;28;20021;-80
2022/01/08 09:15:55;;;;;;;4.07;1.17;;;;;;;;;;5052601;28;20032;-79
2022/01/08 09:18:22;;;;;;;5.07;1.25;;;;;;;;;;5052655;28;20507;-80
2022/01/08 09:20:49;;;;;;;5.93;1.60;;;;;;;;;;5052702;28;20025;-80
2022/01/08 09:23:17;;;;;;;2.80;1.25;;;;;;;;;;5054723;28;20025;-84
2022/01/08 09:25:44;;;;;;;5.88;1.58;;;;;;;;;;5054516;28;20082;-82
2022/01/08 09:28:11;;;;;;;3.53;1.50;;;;;;;;;;5052984;28;20485;-81
2022/01/08 09:30:38;;;;;;;5.88;1.25;;;;;;;;;;5054226;28;20125;-82
2022/01/08 09:33:07;;;;;;;3.58;1.35;;;;;;;;;;5052866;28;20025;-82
2022/01/08 09:35:34;;;;;;;5.38;1.50;;;;;;;;;;5053030;28;20025;-83
2022/01/08 09:38:04;;;;;;;3.25;1.30;;;;;;;;;;5054069;28;20497;-82
2022/01/08 09:40:34;;;;;;;3.33;1.40;;;;;;;;;;5052761;28;20031;-82
2022/01/08 09:43:01;;;;;;;4.80;1.17;;;;;;;;;;5053403;28;20489;-83
2022/01/08 09:45:28;;;;;;;5.22;2.00;;;;;;;;;;5053777;28;20493;-84
2022/01/08 09:47:58;;;;;;;6.25;1.48;;;;;;;;;;5054227;28;20107;-82
2022/01/08 09:50:26;;;;;;;4.72;1.75;;;;;;;;;;5054732;28;20021;-83
2022/01/08 09:52:57;;;;;;;3.75;1.38;;;;;;;;;;5054835;28;20025;-81
2022/01/08 09:55:30;;;;;;;7.03;2.10;;;;;;;;;;5058424;28;20025;-83
2022/01/08 09:57:57;;;;;;;6.95;1.55;;;;;;;;;;5058062;28;20049;-82
2022/01/08 10:00:25;;;;;;;8.40;1.92;;;;;;;;;;5056104;28;20025;-81
2022/01/08 10:02:52;;;;;;;5.18;1.70;;;;;;;;;;5055426;28;20025;-83
2022/01/08 10:05:20;;;;;;;6.32;2.00;;;;;;;;;;5054490;28;20075;-82
2022/01/08 10:08:03;;;;;;;9.75;2.40;;;;;;;;;;5055507;28;20056;-82
2022/01/08 10:10:30;;;;;;;6.32;1.52;;;;;;;;;;5055802;28;20021;-82
2022/01/08 10:13:00;;;;;;;5.90;2.28;;;;;;;;;;5053331;28;20017;-81
2022/01/08 10:18:22;;;;;;;4.85;1.45;;;;;;;;;;5055171;28;20031;-82
2022/01/08 10:20:52;;;;;;;5.75;1.60;;;;;;;;;;5054462;28;20487;-86
2022/01/08 10:23:22;;;;;;;4.97;2.20;;;;;;;;;;5052629;28;20085;-79
2022/01/08 10:26:04;;;;;;;7.43;1.75;;;;;;;;;;5053755;28;20399;-78
2022/01/08 10:28:34;;;;;;;6.20;1.92;;;;;;;;;;5052889;28;20025;-83
2022/01/08 10:31:07;;;;;;;7.38;2.00;;;;;;;;;;5053068;28;20017;-81
2022/01/08 10:33:35;;;;;;;6.25;1.60;;;;;;;;;;5052801;28;20040;-79
2022/01/08 10:36:02;;;;;;;7.15;2.10;;;;;;;;;;5053876;28;20021;-85
2022/01/08 10:38:32;;;;;;;6.97;1.58;;;;;;;;;;5053237;28;20095;-85
2022/01/08 10:41:02;;;;;;;;;;;;;;;;;;5055642;28;20033;-86
2022/01/08 10:43:30;;;;;;;8.67;2.13;;;;;;;;;;5057393;28;19948;-84
2022/01/08 10:46:08;;;;;;;7.13;1.85;;;;;;;;;;5057093;28;20029;-85
2022/01/08 10:48:36;;;;;;;5.18;1.55;;;;;;;;;;5057344;28;20025;-85
2022/01/08 10:51:13;;;;;;;4.38;1.45;;;;;;;;;;5057627;28;20432;-86
2022/01/08 10:53:54;;;;;;;4.38;2.00;;;;;;;;;;5058253;28;20528;-84
2022/01/08 10:56:20;;;;;;;;;;;;;;;;;;5057135;28;20021;-84
2022/01/08 10:58:59;;;;;;;5.25;1.80;;;;;;;;;;5057103;28;19905;-84
2022/01/08 11:01:56;;;;;;;6.38;2.15;;;;;;;;;;5057463;28;20028;-86
2022/01/08 11:04:36;;;;;;;4.35;2.10;;;;;;;;;;5058495;28;20115;-85
2022/01/08 11:07:06;;;;;;;5.90;2.10;;;;;;;;;;5058429;28;20032;-85
2022/01/08 11:09:36;;;;;;;5.97;2.42;;;;;;;;;;5058256;28;20060;-85
2022/01/08 11:12:04;;;;;;;8.25;2.50;;;;;;;;;;5058185;28;20384;-87
2022/01/08 11:15:48;;;;;;;5.15;2.47;;;;;;;;;;5057991;28;20025;-85
2022/01/08 11:17:38;;;;;;;7.00;2.55;;;23.10;99.90;;;;;;5061851;28;20493;-85
2022/01/08 11:20:12;;;;;;;8.05;2.55;;;23.10;99.90;;;;;;5057117;28;20039;-84
2022/01/08 11:22:43;;;;;;;7.82;3.30;;;23.10;99.90;;;;;;5056539;28;20028;-85
2022/01/08 11:25:18;;;;;;;7.78;3.20;;;23.10;99.90;;;;;;5057664;28;20032;-85
2022/01/08 11:28:08;;;;;;;7.47;3.20;;;22.90;99.90;;;;;;5056238;28;20485;-84
2022/01/08 11:30:41;;;;;;;8.68;2.67;;;23.20;99.90;;;;;;5055303;28;20517;-85
2022/01/08 11:33:16;;;;;;;8.55;2.97;;;23.10;99.90;;;;;;5055219;28;20025;-85
2022/01/08 11:35:46;;;;;;;6.60;3.38;;;23.20;99.90;;;;;;5055254;28;20496;-86
2022/01/08 11:38:17;;;;;;;6.90;3.58;;;23.10;99.90;;;;;;5056119;28;20117;-84
2022/01/08 11:40:46;;;;;;;8.18;3.17;;;23.10;99.90;;;;;;5054722;28;20035;-85
2022/01/08 11:43:16;;;;;;;8.45;3.22;;;23.10;99.90;;;;;;5054751;28;20397;-83
2022/01/08 11:45:47;;;;;;;8.63;3.38;;;23.10;99.90;;;;;;5054685;28;20029;-83
2022/01/08 11:48:17;;;;;;;10.18;3.38;;;23.10;99.90;;;;;;5054476;28;20040;-83
2022/01/08 11:50:56;;;;;;;10.32;3.75;;;23.10;99.90;;;;;;5054604;28;20053;-84
2022/01/08 11:53:26;;;;;;;9.95;3.88;;;23.20;99.90;;;;;;5055772;28;20025;-82
2022/01/08 11:55:55;;;;;;;9.80;3.75;;;23.10;99.90;;;;;;5056058;28;20022;-84
2022/01/08 11:58:27;;;;;;;10.43;4.00;;;23.20;99.90;;;;;;5055474;28;20029;-85
2022/01/08 12:00:58;;;;;;;8.75;3.65;;;23.20;99.90;;;;;;5055823;28;20024;-83
2022/01/08 12:03:39;;;;;;;12.05;3.65;;;23.10;99.90;;;;;;5054052;28;20037;-86
2022/01/08 12:06:22;;;;;;;9.93;3.85;;;23.10;99.90;;;;;;5056155;28;20107;-85
2022/01/08 12:12:01;;;;;;;11.15;4.70;;;23.10;99.90;;;;;;5056569;28;20405;-82
2022/01/08 12:14:45;;;;;;;9.07;4.43;;;23.10;99.90;;;;;;5054687;28;20082;-84
2022/01/08 12:17:21;;;;;;;8.90;4.30;;;23.00;99.90;;;;;;5054879;28;20036;-84
2022/01/08 12:19:58;;;;;;;12.32;4.10;;;23.00;99.90;;;;;;5055747;28;20044;-85
2022/01/08 12:22:25;;;;;;;11.63;4.95;;;23.00;99.90;;;;;;5055488;28;20018;-84
2022/01/08 12:25:00;;;;;;;12.20;4.63;;;23.00;99.90;;;;;;5055591;28;20496;-86
2022/01/08 12:27:38;;;;;;;12.68;4.55;;;23.10;99.90;;;;;;5054156;28;20138;-85
2022/01/08 12:30:33;;;;;;;14.35;4.38;;;23.10;99.90;;;;;;5055235;28;20013;-86
2022/01/08 12:33:18;;;;;;;12.80;4.97;;;23.10;99.90;;;;;;5055574;28;20021;-86
2022/01/08 12:35:46;;;;;;;13.75;4.88;;;23.10;99.90;;;;;;5054312;28;20032;-84
2022/01/08 12:38:32;;;;;;;11.95;4.13;;;23.10;99.90;;;;;;5054202;28;20025;-85
2022/01/08 12:41:00;;;;;;;10.75;4.00;;;23.20;99.90;;;;;;5054181;28;20025;-81
2022/01/08 12:43:33;;;;;;;12.55;4.85;;;23.20;99.90;;;;;;5054226;28;20029;-85
2022/01/08 12:46:24;;;;;;;12.60;4.35;;;23.20;99.90;;;;;;5055155;28;20138;-84
2022/01/08 12:49:21;;;;;;;11.45;3.97;;;23.10;99.90;;;;;;5055329;28;20482;-85
2022/01/08 12:51:51;;;;;;;15.52;4.95;;;23.10;99.90;;;;;;5054936;28;20033;-84
2022/01/08 12:54:20;;;;;;;16.15;4.63;;;23.10;99.90;;;;;;5053884;28;20021;-83
2022/01/08 12:56:53;;;;;;;15.47;4.50;;;23.10;99.90;;;;;;5054010;28;20025;-83
2022/01/08 12:59:29;;;;;;;12.55;4.57;;;23.10;99.90;;;;;;5053763;28;20496;-83
2022/01/08 13:01:57;;;;;;;19.23;4.68;;;23.00;99.90;;;;;;5054860;28;20021;-83
2022/01/08 13:04:25;;;;;;;12.77;4.32;;;23.10;99.90;;;;;;5052663;28;20447;-85
2022/01/08 13:06:52;;;;;;;13.77;4.95;;;23.00;99.90;;;;;;5053583;28;20051;-83
2022/01/08 13:09:19;;;;;;;10.90;4.03;;;23.10;99.90;;;;;;5053275;28;20029;-84
2022/01/08 13:11:48;;;;;;;13.52;5.28;;;23.10;99.90;;;;;;5052785;28;20029;-84
2022/01/08 13:14:21;;;;;;;12.50;4.43;;;23.00;99.90;;;;;;5052797;28;20028;-83
2022/01/08 13:16:54;;;;;;;10.63;4.80;;;23.00;99.90;;;;;;5052936;28;20025;-84
2022/01/08 13:19:27;;;;;;;14.23;4.32;;;23.00;99.90;;;;;;5052700;28;20384;-84
2022/01/08 13:22:03;;;;;;;11.50;4.53;;;23.00;99.90;;;;;;5054196;28;20028;-80
2022/01/08 13:24:35;;;;;;;14.07;4.75;;;23.10;99.90;;;;;;5053823;28;20025;-84
2022/01/08 13:27:15;;;;;;;10.95;3.95;;;22.90;99.90;;;;;;5053931;28;20078;-83
2022/01/08 13:29:44;;;;;;;17.88;4.90;;;22.90;99.90;;;;;;5053995;28;20505;-85
2022/01/08 13:32:19;;;;;;;16.48;5.43;;;22.80;99.90;;;;;;5053889;28;20398;-82
2022/01/08 13:34:51;;;;;;;16.85;5.25;;;22.80;99.90;;;;;;5052363;28;20028;-84
2022/01/08 13:37:30;;;;;;;16.67;5.70;;;22.70;99.90;;;;;;5053795;28;20025;-84
2022/01/08 13:40:06;;;;;;;13.15;5.22;;;22.60;99.90;;;;;;5052379;28;20071;-83
2022/01/08 13:42:46;;;;;;;10.00;4.35;;;22.50;99.90;;;;;;5054107;28;20017;-83
2022/01/08 13:45:17;;;;;;;13.02;4.68;;;22.50;99.90;;;;;;5053536;28;20024;-83
2022/01/08 13:47:59;;;;;;;15.80;4.90;;;22.50;99.90;;;;;;5053287;28;20045;-81
2022/01/08 13:50:35;;;;;;;15.57;4.95;;;22.50;99.90;;;;;;5052101;28;20020;-83
2022/01/08 13:53:05;;;;;;;13.88;4.22;;;;;;;;;;5052169;28;20428;-83
2022/01/08 13:55:35;;;;;;;15.15;4.63;;;;;;;;;;5053407;28;20039;-81
2022/01/08 13:58:13;;;;;;;10.65;4.20;;;;;;;;;;5052591;28;20029;-85
2022/01/08 14:00:46;;;;;;;18.73;4.57;;;;;;;;;;5052442;28;20111;-82
2022/01/08 14:03:42;;;;;;;15.07;4.03;;;;;;;;;;5051788;28;20409;-83
2022/01/08 14:06:10;;;;;;;14.55;4.32;;;;;;;;;;5047595;28;20037;-83
2022/01/08 14:08:39;;;;;;;11.43;4.00;;;;;;;;;;5052991;28;20033;-83
2022/01/08 14:11:07;;;;;;;15.20;4.40;;;;;;;;;;5051793;28;20363;-80
2022/01/08 14:13:45;;;;;;;14.32;3.92;;;;;;;;;;5053071;28;20025;-82
2022/01/08 14:16:12;;;;;;;16.08;4.20;;;;;;;;;;5054013;28;20017;-82
2022/01/08 14:18:40;;;;;;;15.43;4.32;;;;;;;;;;5057179;28;20502;-80
2022/01/08 14:21:14;;;;;;;12.55;3.60;;;;;;;;;;5057110;28;20075;-82
2022/01/08 14:23:41;;;;;;;17.23;4.15;;;;;;;;;;5056942;28;20481;-81
2022/01/08 14:26:19;;;;;;;16.27;4.10;;;;;;;;;;5056870;28;20076;-79
2022/01/08 14:29:02;;;;;;;20.58;5.15;;;;;;;;;;5056623;28;20023;-81
2022/01/08 14:31:30;;;;;;;16.27;5.05;;;;;;;;;;5057032;28;20027;-82
2022/01/08 14:34:00;;;;;;;15.07;4.47;;;;;;;;;;5055684;28;20035;-81
2022/01/08 14:36:39;;;;;;;15.20;4.50;;;;;;;;;;5056700;28;20100;-82
2022/01/08 14:39:06;;;;;;;13.32;4.45;;;;;;;;;;5055388;28;20036;-82
2022/01/08 14:41:34;;;;;;;11.90;4.10;;;;;;;;;;5055291;28;20025;-79
2022/01/08 14:44:02;;;;;;;14.07;4.60;;;;;;;;;;5056650;28;20107;-78
2022/01/08 14:46:29;;;;;;;19.25;4.72;;;;;;;;;;5055233;28;20490;-80
2022/01/08 14:48:57;;;;;;;15.40;4.57;;;;;;;;;;5056354;28;20390;-81
2022/01/08 14:51:29;;;;;;;17.60;4.65;;;;;;;;;;5055296;28;20049;-83
2022/01/08 14:54:05;;;;;;;12.05;5.03;;;;;;;;;;5055386;28;20494;-83
2022/01/08 14:56:32;;;;;;;13.23;4.40;;;;;;;;;;5055322;28;20025;-81
2022/01/08 14:58:59;;;;;;;14.10;4.00;;;;;;;;;;5056244;28;20032;-83
2022/01/08 15:01:26;;;;;;;10.95;3.80;;;;;;;;;;5056463;28;20388;-82
2022/01/08 15:03:54;;;;;;;18.83;5.25;;;;;;;;;;5055075;28;20047;-83
2022/01/08 15:06:21;;;;;;;12.38;4.05;;;;;;;;;;5054848;28;20021;-83
2022/01/08 15:08:48;;;;;;;10.88;3.63;;;;;;;;;;5055136;28;20406;-81
2022/01/08 15:11:15;;;;;;;12.15;4.55;;;;;;;;;;5054756;28;20045;-82